Time;durP1;ratioP1;P1;durP2;ratioP2;P2;SDS_P1;SDS_P2;PMS_P1;PMS_P2;Temp;Humidity;BMP_temperature;BMP_pressure;BME280_temperature;BME280_humidity;BME280_pressure;Samples;Min_cycle;Max_cycle;Signal;HPM_P1;HPM_P2
2024/03/13 00:01:02;;;;;;;7.22;5.90;;;13.70;67.10;15.50;101061.00;;;;5031880;28;20197;-73
2024/03/13 00:03:32;;;;;;;6.00;5.22;;;13.70;67.10;15.50;101056.00;;;;5046034;28;20339;-73
2024/03/13 00:05:59;;;;;;;7.53;6.07;;;13.70;67.20;15.50;101064.00;;;;5032164;28;20193;-73
2024/03/13 00:08:26;;;;;;;7.40;5.70;;;13.70;67.20;15.50;101059.00;;;;5035342;28;20222;-73
2024/03/13 00:10:54;;;;;;;7.15;6.22;;;13.70;67.20;15.50;101062.00;;;;5033171;28;20285;-72
2024/03/13 00:13:23;;;;;;;6.75;5.80;;;13.70;67.20;15.50;101064.00;;;;5045224;28;20215;-73
2024/03/13 00:15:50;;;;;;;7.05;5.43;;;13.80;67.30;15.60;101058.00;;;;5044553;28;20894;-73
2024/03/13 00:18:20;;;;;;;6.32;5.18;;;13.80;67.20;15.50;101065.00;;;;5031889;28;20196;-73
2024/03/13 00:20:47;;;;;;;6.55;5.30;;;13.80;67.20;15.60;101061.00;;;;5031527;28;20206;-73
2024/03/13 00:23:15;;;;;;;6.82;5.78;;;13.80;67.20;15.60;101064.00;;;;5034065;28;20200;-72
2024/03/13 00:25:43;;;;;;;5.97;5.20;;;13.80;67.20;15.60;101074.00;;;;5036118;28;20223;-73
2024/03/13 00:28:10;;;;;;;7.28;5.78;;;13.80;67.20;15.60;101068.00;;;;5033557;28;20231;-73
2024/03/13 00:30:37;;;;;;;7.38;6.03;;;13.80;67.30;15.60;101060.00;;;;5034237;28;20551;-73
2024/03/13 00:33:05;;;;;;;8.10;6.32;;;13.80;67.20;15.60;101070.00;;;;5037743;28;20615;-73
2024/03/13 00:35:35;;;;;;;6.32;5.30;;;13.80;67.30;15.60;101065.00;;;;5033729;28;20571;-72
2024/03/13 00:38:03;;;;;;;6.45;5.00;;;13.80;67.30;15.60;101073.00;;;;5031626;28;20254;-72
2024/03/13 00:40:31;;;;;;;6.32;5.13;;;13.90;67.40;15.60;101069.00;;;;5032818;28;20205;-73
2024/03/13 00:42:58;;;;;;;6.60;5.35;;;13.90;67.30;15.60;101069.00;;;;5031917;28;20579;-72
2024/03/13 00:45:25;;;;;;;8.10;6.20;;;13.90;67.40;15.60;101063.00;;;;5035433;28;20199;-72
2024/03/13 00:47:54;;;;;;;7.05;5.65;;;13.90;67.40;15.60;101065.00;;;;5031858;28;20283;-72
2024/03/13 00:50:22;;;;;;;6.85;5.93;;;13.90;67.40;15.70;101075.00;;;;5035130;28;20219;-73
2024/03/13 00:52:51;;;;;;;5.90;5.30;;;13.90;67.40;15.70;101068.00;;;;5038248;28;20548;-73
2024/03/13 00:55:18;;;;;;;6.75;5.05;;;13.90;67.40;15.70;101068.00;;;;5034406;28;20632;-73
2024/03/13 00:57:46;;;;;;;6.53;5.70;;;13.90;67.40;15.70;101072.00;;;;5034591;28;20628;-73
2024/03/13 01:00:18;;;;;;;7.40;6.10;;;13.90;67.50;15.70;101073.00;;;;5032668;28;20200;-73
2024/03/13 01:02:45;;;;;;;6.63;5.43;;;13.90;67.50;15.70;101076.00;;;;5031336;28;20224;-73
2024/03/13 01:05:15;;;;;;;6.20;5.20;;;13.90;67.40;15.70;101070.00;;;;5033795;28;20200;-73
2024/03/13 01:07:42;;;;;;;5.55;4.68;;;13.90;67.50;15.70;101079.00;;;;5036442;28;20239;-73
2024/03/13 01:10:11;;;;;;;6.10;5.35;;;14.00;67.50;15.70;101077.00;;;;5037331;28;20693;-73
2024/03/13 01:12:40;;;;;;;5.70;4.97;;;14.00;67.50;15.80;101082.00;;;;5031270;28;20306;-73
2024/03/13 01:15:08;;;;;;;7.20;5.55;;;14.00;67.50;15.80;101076.00;;;;5047128;28;20188;-73
2024/03/13 01:17:35;;;;;;;6.03;4.97;;;14.00;67.50;15.80;101070.00;;;;5031294;28;20279;-73
2024/03/13 01:20:03;;;;;;;8.00;5.97;;;14.00;67.60;15.80;101073.00;;;;5037445;28;20283;-73
2024/03/13 01:22:31;;;;;;;8.07;5.38;;;14.00;67.50;15.80;101065.00;;;;5036750;28;20192;-72
2024/03/13 01:24:59;;;;;;;8.05;6.15;;;14.00;67.50;15.80;101062.00;;;;5044563;28;20204;-73
2024/03/13 01:27:28;;;;;;;7.10;5.60;;;14.00;67.60;15.80;101058.00;;;;5036585;28;20192;-73
2024/03/13 01:29:55;;;;;;;8.02;6.00;;;14.00;67.50;15.90;101053.00;;;;5039614;28;20231;-73
2024/03/13 01:32:23;;;;;;;7.82;5.95;;;14.10;67.60;15.90;101054.00;;;;5032869;28;20205;-73
2024/03/13 01:34:50;;;;;;;8.02;5.75;;;14.10;67.70;15.90;101052.00;;;;5031141;28;20196;-73
2024/03/13 01:40:06;;;;;;;9.10;6.00;;;14.10;67.70;15.90;101059.00;;;;5035986;28;20202;-73
2024/03/13 01:55:06;;;;;;;8.50;6.22;;;14.20;67.60;15.90;101057.00;;;;5034286;28;20259;-73
2024/03/13 01:57:45;;;;;;;11.35;6.68;;;14.10;67.60;15.90;101066.00;;;;5031784;28;20809;-73
2024/03/13 02:02:58;;;;;;;12.35;6.45;;;14.20;67.70;15.90;101064.00;;;;5034520;28;20239;-73
2024/03/13 02:05:25;;;;;;;14.23;6.93;;;14.20;67.70;16.00;101061.00;;;;5034540;28;20197;-73
2024/03/13 02:07:53;;;;;;;13.18;6.60;;;14.20;67.80;16.00;101063.00;;;;5038073;28;20202;-74
2024/03/13 02:10:21;;;;;;;11.65;7.35;;;14.20;67.80;16.00;101067.00;;;;5048324;28;20219;-73
2024/03/13 02:13:07;;;;;;;11.68;6.45;;;14.20;67.80;15.90;101069.00;;;;5039767;28;20311;-73
2024/03/13 02:15:35;;;;;;;8.60;6.15;;;14.20;68.10;16.00;101070.00;;;;5037037;28;20287;-73
2024/03/13 02:18:02;;;;;;;12.45;7.35;;;14.20;67.80;16.00;101064.00;;;;5041944;28;20205;-73
2024/03/13 02:20:30;;;;;;;11.93;8.02;;;14.20;67.80;16.00;101067.00;;;;5034250;28;20287;-73
2024/03/13 02:23:04;;;;;;;8.80;6.25;;;14.20;67.80;16.00;101057.00;;;;5040354;28;20243;-74
2024/03/13 02:25:31;;;;;;;11.32;7.15;;;14.20;67.90;16.10;101062.00;;;;5046488;28;20200;-73
2024/03/13 02:28:00;;;;;;;13.18;8.07;;;14.20;67.80;16.10;101070.00;;;;4994126;28;20201;-73
2024/03/13 02:30:27;;;;;;;10.88;7.25;;;14.30;67.90;16.10;101062.00;;;;4995367;28;20223;-73
2024/03/13 02:32:55;;;;;;;12.80;7.70;;;14.30;67.90;16.10;101048.00;;;;5000367;28;20283;-73
2024/03/13 02:35:22;;;;;;;12.45;7.43;;;14.30;67.90;16.10;101058.00;;;;5019326;28;20653;-73
2024/03/13 02:37:50;;;;;;;12.02;7.85;;;14.30;67.90;16.10;101061.00;;;;4995633;28;20292;-73
2024/03/13 02:40:17;;;;;;;11.32;7.65;;;14.30;67.90;16.10;101051.00;;;;4995848;28;20201;-73
2024/03/13 02:42:45;;;;;;;14.27;7.78;;;14.30;67.90;16.10;101051.00;;;;5002635;28;20284;-73
2024/03/13 02:45:13;;;;;;;13.55;8.40;;;14.30;68.00;16.20;101058.00;;;;4988553;28;20197;-73
2024/03/13 02:47:41;;;;;;;14.75;7.90;;;14.30;68.00;16.20;101050.00;;;;4988034;28;20200;-73
2024/03/13 02:50:11;;;;;;;13.57;8.10;;;14.30;68.00;16.20;101049.00;;;;5009483;28;20219;-73
2024/03/13 02:52:39;;;;;;;14.30;7.63;;;14.30;68.00;16.20;101057.00;;;;4987818;28;20199;-73
2024/03/13 02:55:10;;;;;;;10.68;6.72;;;14.40;68.10;16.20;101054.00;;;;4984756;28;20204;-73
2024/03/13 02:57:37;;;;;;;12.43;7.60;;;14.40;68.10;16.20;101058.00;;;;5018217;28;20249;-73
2024/03/13 03:00:06;;;;;;;15.00;8.13;;;14.40;68.20;16.20;101053.00;;;;4983716;28;20192;-73
2024/03/13 03:02:33;;;;;;;8.32;6.07;;;14.40;68.30;16.20;101053.00;;;;5000021;28;20235;-73
2024/03/13 03:05:01;;;;;;;11.88;6.25;;;14.40;68.30;16.20;101054.00;;;;5000328;28;20669;-73
2024/03/13 03:07:28;;;;;;;11.45;6.30;;;14.40;68.50;16.20;101059.00;;;;5012418;28;20895;-73
2024/03/13 03:09:55;;;;;;;7.47;4.78;;;14.40;68.60;16.20;101059.00;;;;5007807;28;20848;-72
2024/03/13 03:12:23;;;;;;;12.05;5.97;;;14.50;68.70;16.20;101061.00;;;;5030596;28;20676;-72
2024/03/13 03:14:50;;;;;;;7.18;5.22;;;14.50;68.80;16.20;101052.00;;;;5009449;28;20196;-72
2024/03/13 03:17:18;;;;;;;8.68;5.57;;;14.50;68.80;16.30;101061.00;;;;4999719;28;20231;-72
2024/03/13 03:19:45;;;;;;;6.07;4.20;;;14.50;68.90;16.30;101058.00;;;;5016456;28;20572;-72
2024/03/13 03:22:13;;;;;;;7.82;3.80;;;14.60;69.00;16.30;101063.00;;;;5018753;28;20208;-72
2024/03/13 03:24:42;;;;;;;8.05;4.18;;;14.60;68.90;16.30;101063.00;;;;4999909;28;20603;-72
2024/03/13 03:27:09;;;;;;;5.22;3.97;;;14.60;69.00;16.40;101065.00;;;;5002067;28;20197;-73
2024/03/13 03:29:37;;;;;;;9.73;4.25;;;14.70;69.00;16.40;101073.00;;;;5022642;28;20230;-73
2024/03/13 03:32:05;;;;;;;5.20;3.60;;;14.70;69.10;16.40;101074.00;;;;5015216;28;20822;-72
2024/03/13 03:34:33;;;;;;;9.10;4.43;;;14.70;69.00;16.40;101075.00;;;;5013245;28;20208;-73
2024/03/13 03:37:01;;;;;;;7.70;4.22;;;14.70;69.10;16.40;101072.00;;;;5011357;28;20198;-73
2024/03/13 03:39:29;;;;;;;7.20;4.38;;;14.70;69.10;16.50;101079.00;;;;5015638;28;20658;-72
2024/03/13 03:41:58;;;;;;;6.60;4.55;;;14.70;69.10;16.50;101074.00;;;;5015274;28;20254;-73
2024/03/13 03:44:29;;;;;;;6.93;4.47;;;14.80;69.10;16.50;101074.00;;;;5023810;28;20573;-73
2024/03/13 03:46:56;;;;;;;5.50;3.90;;;14.80;69.10;16.50;101081.00;;;;5002378;28;20224;-73
2024/03/13 03:49:24;;;;;;;7.10;4.47;;;14.80;69.10;16.50;101080.00;;;;5020490;28;20203;-72
2024/03/13 03:51:51;;;;;;;6.40;4.45;;;14.80;69.00;16.50;101085.00;;;;5007876;28;20724;-73
2024/03/13 03:54:21;;;;;;;5.53;4.47;;;14.80;69.10;16.50;101083.00;;;;5000972;28;20283;-73
2024/03/13 03:56:48;;;;;;;8.65;5.15;;;14.80;69.10;16.50;101080.00;;;;5002674;28;20192;-72
2024/03/13 03:59:15;;;;;;;7.60;5.28;;;14.80;69.00;16.50;101090.00;;;;4998718;28;20564;-73
2024/03/13 04:01:43;;;;;;;6.57;4.43;;;14.80;69.10;16.50;101088.00;;;;5001397;28;20242;-72
2024/03/13 04:04:13;;;;;;;6.93;4.70;;;14.90;69.00;16.50;101088.00;;;;4983186;28;20215;-73
2024/03/13 04:06:43;;;;;;;6.65;4.60;;;14.90;69.00;16.60;101090.00;;;;5003728;28;20204;-73
2024/03/13 04:09:15;;;;;;;7.38;4.80;;;14.90;69.00;16.60;101088.00;;;;4984176;28;20228;-73
2024/03/13 04:11:43;;;;;;;7.63;5.35;;;14.90;69.00;16.60;101086.00;;;;4990198;28;20224;-73
2024/03/13 04:14:10;;;;;;;8.32;6.05;;;14.90;69.80;16.60;101081.00;;;;4982621;28;20223;-72
2024/03/13 04:16:38;;;;;;;8.25;4.80;;;14.90;69.00;16.50;101083.00;;;;5001013;28;20673;-72
2024/03/13 04:19:06;;;;;;;7.07;4.93;;;14.90;69.70;16.60;101088.00;;;;4982232;28;20228;-73
2024/03/13 04:21:34;;;;;;;8.38;5.57;;;14.90;69.60;16.50;101083.00;;;;5012476;28;20283;-73
2024/03/13 04:24:01;;;;;;;6.95;4.60;;;14.90;69.00;16.60;101087.00;;;;5006873;28;20617;-73
2024/03/13 04:26:30;;;;;;;7.38;4.45;;;14.90;69.00;16.60;101088.00;;;;5001142;28;20295;-73
2024/03/13 04:28:58;;;;;;;7.82;5.50;;;14.90;69.70;16.60;101086.00;;;;4986290;28;20200;-72
2024/03/13 04:31:26;;;;;;;7.45;4.88;;;14.90;69.00;16.60;101091.00;;;;4985228;28;20220;-73
2024/03/13 04:33:54;;;;;;;8.48;5.75;;;14.90;69.00;16.60;101090.00;;;;4986423;28;20201;-73
2024/03/13 04:36:21;;;;;;;8.52;4.40;;;14.90;69.00;16.60;101090.00;;;;5004090;28;20201;-73
2024/03/13 04:38:51;;;;;;;8.40;5.82;;;14.90;68.90;16.60;101093.00;;;;5014597;28;20203;-72
2024/03/13 04:41:19;;;;;;;9.10;5.65;;;14.90;69.00;16.60;101099.00;;;;4983069;28;20196;-73
2024/03/13 04:43:46;;;;;;;10.60;6.05;;;14.90;68.90;16.60;101100.00;;;;4985237;28;20203;-73
2024/03/13 04:46:17;;;;;;;8.07;5.25;;;14.90;69.00;16.60;101104.00;;;;5003960;28;20576;-73
2024/03/13 04:48:45;;;;;;;7.32;5.25;;;14.90;69.00;16.60;101093.00;;;;4998656;28;20204;-73
2024/03/13 04:51:14;;;;;;;7.65;5.43;;;15.00;69.00;16.60;101110.00;;;;4981778;28;20231;-72
2024/03/13 04:53:43;;;;;;;8.18;5.80;;;14.90;69.10;16.60;101113.00;;;;4985814;28;20211;-73
2024/03/13 04:56:11;;;;;;;8.60;5.13;;;14.90;69.00;16.60;101108.00;;;;5000874;28;20203;-72
2024/03/13 04:58:38;;;;;;;9.18;5.68;;;14.90;69.00;16.60;101113.00;;;;5004193;28;20200;-73
2024/03/13 05:01:05;;;;;;;7.75;5.35;;;15.00;69.80;16.60;101110.00;;;;4982363;28;20740;-72
2024/03/13 05:03:33;;;;;;;9.13;5.32;;;14.90;69.10;16.60;101113.00;;;;5036896;28;20710;-73
2024/03/13 05:06:01;;;;;;;7.15;5.22;;;14.90;69.10;16.60;101112.00;;;;4998438;28;20208;-73
2024/03/13 05:08:29;;;;;;;9.90;5.43;;;14.90;69.10;16.60;101114.00;;;;5014564;28;20199;-73
2024/03/13 05:10:56;;;;;;;6.78;5.32;;;14.90;69.10;16.60;101110.00;;;;5017117;28;20243;-72
2024/03/13 05:13:23;;;;;;;7.85;5.57;;;14.90;69.20;16.60;101111.00;;;;4999324;28;20302;-73
2024/03/13 05:15:51;;;;;;;7.85;6.18;;;14.90;69.20;16.60;101110.00;;;;5007196;28;20658;-73
2024/03/13 05:18:19;;;;;;;5.95;4.63;;;15.00;69.30;16.60;101107.00;;;;5018569;28;20769;-73
2024/03/13 05:20:46;;;;;;;7.68;4.45;;;15.00;69.20;16.60;101113.00;;;;4999085;28;20436;-72
2024/03/13 05:23:13;;;;;;;8.65;4.95;;;14.90;69.10;16.60;101113.00;;;;4997436;28;20223;-72
2024/03/13 05:25:40;;;;;;;6.45;4.95;;;14.90;69.10;16.60;101112.00;;;;4998450;28;20215;-72
2024/03/13 05:28:08;;;;;;;8.30;4.68;;;14.90;69.10;16.60;101109.00;;;;4997500;28;20200;-72
2024/03/13 05:30:37;;;;;;;6.25;4.30;;;15.00;69.20;16.60;101114.00;;;;4996402;28;20585;-72
2024/03/13 05:33:06;;;;;;;6.80;4.18;;;15.00;69.20;16.60;101122.00;;;;5001131;28;20571;-72
2024/03/13 05:35:33;;;;;;;7.03;4.03;;;14.90;69.20;16.60;101123.00;;;;5005114;28;20208;-72
2024/03/13 05:38:00;;;;;;;8.35;4.20;;;15.00;69.20;16.60;101130.00;;;;5001461;28;20211;-72
2024/03/13 05:40:28;;;;;;;7.68;4.15;;;15.00;69.20;16.60;101129.00;;;;5017521;28;20204;-73
2024/03/13 05:42:55;;;;;;;7.60;4.35;;;15.00;69.20;16.60;101127.00;;;;5001741;28;20204;-73
2024/03/13 05:45:22;;;;;;;5.63;3.65;;;15.00;69.20;16.60;101127.00;;;;5001399;28;20199;-73
2024/03/13 05:47:49;;;;;;;6.82;3.63;;;15.00;69.30;16.60;101130.00;;;;5020842;28;20199;-73
2024/03/13 05:50:17;;;;;;;5.47;3.42;;;15.00;69.30;16.60;101130.00;;;;5013356;28;20230;-73
2024/03/13 05:52:45;;;;;;;5.22;3.38;;;14.90;69.30;16.60;101130.00;;;;5011432;28;20334;-73
2024/03/13 05:55:14;;;;;;;3.08;2.78;;;15.00;69.20;16.60;101138.00;;;;5010161;28;20195;-72
2024/03/13 05:57:41;;;;;;;3.33;2.95;;;15.00;69.30;16.60;101141.00;;;;5003690;28;20224;-72
2024/03/13 06:00:12;;;;;;;4.75;2.83;;;15.00;69.30;16.60;101140.00;;;;5004824;28;20224;-73
2024/03/13 06:02:40;;;;;;;3.80;2.92;;;15.00;69.30;16.60;101140.00;;;;5006734;28;20311;-72
2024/03/13 06:05:11;;;;;;;4.03;2.75;;;15.00;69.30;16.60;101147.00;;;;4980701;28;20197;-72
2024/03/13 06:07:39;;;;;;;5.50;2.58;;;15.00;69.30;16.60;101139.00;;;;4992145;28;20197;-73
2024/03/13 06:10:09;;;;;;;2.90;2.45;;;15.00;69.30;16.70;101142.00;;;;5004763;28;20211;-72
2024/03/13 06:12:37;;;;;;;4.22;2.63;;;15.00;69.30;16.70;101140.00;;;;4979880;28;20298;-72
2024/03/13 06:15:07;;;;;;;6.68;3.13;;;15.00;69.30;16.70;101150.00;;;;5007118;28;20690;-72
2024/03/13 06:17:34;;;;;;;7.25;3.17;;;15.00;69.30;16.60;101151.00;;;;4998692;28;20243;-73
2024/03/13 06:20:03;;;;;;;4.05;1.95;;;15.00;69.20;16.60;101148.00;;;;4964075;28;20204;-73
2024/03/13 06:22:30;;;;;;;3.60;2.55;;;15.00;69.20;16.70;101154.00;;;;4965306;28;20252;-72
2024/03/13 06:25:00;;;;;;;4.35;2.85;;;15.00;69.30;16.70;101148.00;;;;4984955;28;20696;-72
2024/03/13 06:27:28;;;;;;;7.03;2.95;;;15.00;69.30;16.70;101151.00;;;;5026578;28;20231;-72
2024/03/13 06:29:59;;;;;;;6.82;2.92;;;15.00;70.00;16.70;101151.00;;;;5000070;28;20203;-71
2024/03/13 06:32:28;;;;;;;4.85;2.53;;;15.00;69.30;16.60;101154.00;;;;5014164;28;20225;-73
2024/03/13 06:34:56;;;;;;;4.40;2.42;;;15.00;69.30;16.70;101154.00;;;;4995803;28;20247;-73
2024/03/13 06:37:24;;;;;;;5.90;3.15;;;15.00;69.30;16.60;101162.00;;;;5017165;28;20608;-75
2024/03/13 06:39:53;;;;;;;3.75;2.95;;;15.00;69.30;16.60;101157.00;;;;5017310;28;20200;-74
2024/03/13 06:42:20;;;;;;;6.95;2.78;;;15.00;69.30;16.60;101159.00;;;;5000164;28;20204;-73
2024/03/13 06:44:49;;;;;;;5.82;2.70;;;15.00;69.30;16.70;101167.00;;;;4964058;28;20650;-74
2024/03/13 06:47:16;;;;;;;6.32;3.22;;;15.00;69.40;16.70;101166.00;;;;4981337;28;20554;-74
2024/03/13 06:49:44;;;;;;;5.25;2.72;;;15.00;69.40;16.70;101162.00;;;;4979284;28;20250;-74
2024/03/13 06:52:12;;;;;;;6.28;2.70;;;15.00;69.40;16.70;101167.00;;;;4983512;28;20259;-73
2024/03/13 06:54:40;;;;;;;7.05;2.63;;;15.00;69.40;16.70;101167.00;;;;5015307;28;20197;-74
2024/03/13 06:57:06;;;;;;;4.40;2.67;;;15.00;69.50;16.70;101167.00;;;;4992963;28;20653;-73
2024/03/13 06:59:34;;;;;;;5.00;3.17;;;15.00;69.40;16.60;101161.00;;;;4999354;28;20295;-74
2024/03/13 07:02:01;;;;;;;7.53;3.03;;;15.00;69.30;16.60;101160.00;;;;4964934;28;20197;-76
2024/03/13 07:04:29;;;;;;;5.90;3.00;;;15.00;69.40;16.70;101163.00;;;;4987651;28;20201;-70
2024/03/13 07:06:59;;;;;;;6.43;3.05;;;15.00;69.50;16.60;101163.00;;;;4983536;28;20566;-70
2024/03/13 07:09:27;;;;;;;7.20;2.80;;;15.00;69.50;16.70;101165.00;;;;5003206;28;20196;-70
2024/03/13 07:11:54;;;;;;;5.38;2.40;;;15.00;69.50;16.70;101170.00;;;;4999757;28;20307;-71
2024/03/13 07:14:21;;;;;;;7.22;2.80;;;15.00;69.50;16.70;101176.00;;;;5002060;28;20196;-70
2024/03/13 07:16:48;;;;;;;8.20;3.38;;;15.10;69.70;16.70;101170.00;;;;5001856;28;20204;-70
2024/03/13 07:19:18;;;;;;;6.38;2.80;;;15.00;69.50;16.70;101170.00;;;;4999693;28;20215;-70
2024/03/13 07:21:45;;;;;;;7.40;2.60;;;15.10;69.70;16.70;101165.00;;;;4984695;28;20201;-71
2024/03/13 07:24:12;;;;;;;7.88;2.55;;;15.10;69.70;16.80;101174.00;;;;4983474;28;20210;-71
2024/03/13 07:26:41;;;;;;;7.55;3.17;;;15.10;69.80;16.80;101165.00;;;;4996881;28;20210;-70
2024/03/13 07:29:09;;;;;;;6.00;3.03;;;15.10;70.40;16.80;101175.00;;;;4994647;28;20212;-71
2024/03/13 07:31:39;;;;;;;5.65;3.10;;;15.10;69.70;16.80;101174.00;;;;4999774;28;20275;-70
2024/03/13 07:34:07;;;;;;;6.72;3.67;;;15.10;69.70;16.80;101173.00;;;;4990707;28;20216;-71
2024/03/13 07:36:35;;;;;;;7.35;3.83;;;15.20;69.80;16.90;101173.00;;;;4987162;28;20203;-71
2024/03/13 07:39:03;;;;;;;4.88;3.45;;;15.20;69.80;16.90;101185.00;;;;5003018;28;20199;-71
2024/03/13 07:41:31;;;;;;;5.63;3.95;;;15.20;69.80;16.90;101180.00;;;;5000134;28;20219;-70
2024/03/13 07:43:58;;;;;;;9.68;4.60;;;15.20;69.80;16.90;101184.00;;;;4994735;28;20196;-71
2024/03/13 07:46:26;;;;;;;6.55;3.92;;;15.20;69.70;16.90;101182.00;;;;5014160;28;20208;-71
2024/03/13 07:48:52;;;;;;;9.60;4.97;;;15.20;69.70;16.90;101185.00;;;;5015469;28;20201;-71
2024/03/13 07:51:20;;;;;;;7.47;4.03;;;15.30;69.70;16.90;101186.00;;;;5013109;28;20354;-71
2024/03/13 07:53:48;;;;;;;8.23;4.70;;;15.30;69.80;16.90;101189.00;;;;5015623;28;20192;-71
2024/03/13 07:56:15;;;;;;;8.15;5.00;;;15.30;69.80;16.90;101202.00;;;;5015396;28;20200;-71
2024/03/13 07:58:42;;;;;;;8.32;4.47;;;15.30;69.80;17.00;101197.00;;;;5015218;28;20299;-71
2024/03/13 08:01:10;;;;;;;6.93;3.92;;;15.30;69.80;16.90;101203.00;;;;5008085;28;20214;-71
2024/03/13 08:03:37;;;;;;;6.32;4.78;;;15.30;69.70;16.90;101206.00;;;;4993696;28;20224;-71
2024/03/13 08:06:04;;;;;;;5.97;4.00;;;15.30;69.80;17.00;101214.00;;;;4999055;28;20196;-71
2024/03/13 08:08:32;;;;;;;5.13;4.13;;;15.30;69.80;17.00;101214.00;;;;4999144;28;20311;-71
2024/03/13 08:11:00;;;;;;;6.70;4.35;;;15.30;69.80;17.00;101220.00;;;;4998271;28;20260;-71
2024/03/13 08:13:27;;;;;;;9.43;4.32;;;15.30;69.70;17.00;101218.00;;;;5009534;28;20215;-71
2024/03/13 08:15:54;;;;;;;5.85;4.07;;;15.30;69.70;17.00;101217.00;;;;5002464;28;20653;-71
2024/03/13 08:18:22;;;;;;;6.93;5.13;;;15.30;69.70;17.00;101221.00;;;;5015011;28;20287;-70
2024/03/13 08:20:51;;;;;;;6.97;4.85;;;15.30;69.70;17.00;101219.00;;;;4998934;28;20287;-71
2024/03/13 08:23:19;;;;;;;6.38;4.97;;;15.30;70.40;17.00;101217.00;;;;5028396;28;20204;-71
2024/03/13 08:25:46;;;;;;;6.30;4.47;;;15.30;69.70;17.00;101223.00;;;;5006956;28;20204;-71
2024/03/13 08:28:14;;;;;;;7.00;5.03;;;15.30;69.70;17.00;101228.00;;;;5018328;28;20192;-71
2024/03/13 08:30:42;;;;;;;7.60;5.20;;;15.30;69.70;17.00;101229.00;;;;5016471;28;20616;-70
2024/03/13 08:33:09;;;;;;;7.82;5.05;;;15.30;69.80;17.00;101226.00;;;;5018220;28;20589;-71
2024/03/13 08:35:41;;;;;;;11.02;5.60;;;15.30;69.70;17.00;101230.00;;;;5018326;28;20218;-71
2024/03/13 08:38:08;;;;;;;8.52;5.53;;;15.30;69.80;17.00;101234.00;;;;5019423;28;20195;-71
2024/03/13 08:40:36;;;;;;;12.10;6.07;;;15.30;69.90;17.00;101238.00;;;;5010766;28;20266;-71
2024/03/13 08:43:04;;;;;;;10.02;6.80;;;15.40;69.80;17.00;101238.00;;;;4997490;28;20203;-70
2024/03/13 08:45:32;;;;;;;11.13;7.65;;;15.40;69.90;17.00;101242.00;;;;4998394;28;20260;-70
2024/03/13 08:48:02;;;;;;;10.07;6.57;;;15.40;69.90;17.10;101244.00;;;;4998319;28;20206;-70
2024/03/13 08:50:30;;;;;;;9.48;6.80;;;15.40;69.90;17.10;101250.00;;;;5002506;28;20834;-70
2024/03/13 08:52:57;;;;;;;11.23;7.93;;;15.40;69.90;17.10;101255.00;;;;4998085;28;20227;-70
2024/03/13 08:55:25;;;;;;;13.90;7.88;;;15.40;69.80;17.10;101258.00;;;;4997977;28;20698;-71
2024/03/13 08:57:54;;;;;;;10.43;7.47;;;15.40;69.80;17.10;101254.00;;;;4998551;28;20198;-71
2024/03/13 09:00:21;;;;;;;10.55;6.93;;;15.40;69.80;17.10;101258.00;;;;5025026;28;20222;-70
2024/03/13 09:02:53;;;;;;;13.77;7.47;;;15.50;69.90;17.10;101255.00;;;;4998319;28;20247;-70
2024/03/13 09:05:20;;;;;;;10.15;6.47;;;15.50;69.90;17.10;101258.00;;;;4999205;28;20600;-70
2024/03/13 09:07:47;;;;;;;10.07;6.55;;;15.40;69.80;17.10;101249.00;;;;5011105;28;20209;-70
2024/03/13 09:10:16;;;;;;;9.48;6.47;;;15.50;69.80;17.10;101258.00;;;;5010906;28;20196;-71
2024/03/13 09:12:45;;;;;;;10.93;6.65;;;15.50;69.90;17.20;101260.00;;;;5013916;28;20228;-70
2024/03/13 09:15:13;;;;;;;8.13;6.00;;;15.50;69.90;17.20;101264.00;;;;4999478;28;20299;-70
2024/03/13 09:17:40;;;;;;;10.48;6.03;;;15.50;69.90;17.20;101260.00;;;;5009394;28;20200;-70
2024/03/13 09:20:08;;;;;;;8.10;5.30;;;15.50;70.00;17.20;101267.00;;;;5002179;28;20563;-71
2024/03/13 09:22:35;;;;;;;7.38;5.07;;;15.60;69.90;17.30;101266.00;;;;4997809;28;20208;-71
2024/03/13 09:25:03;;;;;;;8.63;5.10;;;15.50;70.60;17.30;101272.00;;;;4998190;28;20205;-70
2024/03/13 09:27:30;;;;;;;8.77;6.05;;;15.60;70.00;17.30;101272.00;;;;5010544;28;20200;-70
2024/03/13 09:29:57;;;;;;;9.98;5.25;;;15.60;70.00;17.30;101279.00;;;;5046058;28;20204;-70
2024/03/13 09:32:24;;;;;;;10.60;5.90;;;15.60;70.00;17.30;101278.00;;;;4998838;28;20278;-70
2024/03/13 09:34:52;;;;;;;9.48;5.20;;;15.60;69.80;17.30;101279.00;;;;4998799;28;20199;-71
2024/03/13 09:37:20;;;;;;;7.18;5.38;;;15.70;69.90;17.40;101282.00;;;;4997452;28;20204;-71
2024/03/13 09:39:48;;;;;;;11.02;5.13;;;15.70;70.50;17.40;101291.00;;;;5008505;28;20199;-71
2024/03/13 09:42:16;;;;;;;10.65;5.38;;;15.70;69.90;17.40;101287.00;;;;5004214;28;20290;-71
2024/03/13 09:44:44;;;;;;;7.78;5.03;;;15.70;69.90;17.40;101287.00;;;;4999366;28;20211;-71
2024/03/13 09:47:12;;;;;;;7.40;4.57;;;15.70;69.90;17.50;101295.00;;;;5002253;28;20193;-71
2024/03/13 09:49:40;;;;;;;8.80;4.85;;;15.80;70.00;17.40;101290.00;;;;5014951;28;20216;-71
2024/03/13 09:52:11;;;;;;;9.40;5.07;;;15.80;70.00;17.50;101289.00;;;;4997648;28;20277;-71
2024/03/13 09:54:39;;;;;;;5.93;4.65;;;15.80;70.00;17.50;101290.00;;;;4998637;28;20188;-71
2024/03/13 09:57:07;;;;;;;5.07;4.35;;;15.80;70.70;17.60;101287.00;;;;4997454;28;20288;-71
2024/03/13 09:59:36;;;;;;;5.88;4.30;;;15.90;70.10;17.60;101289.00;;;;5015835;28;20250;-72
2024/03/13 10:02:03;;;;;;;7.07;5.38;;;15.90;70.10;17.60;101288.00;;;;4997317;28;20697;-71
2024/03/13 10:04:31;;;;;;;5.00;4.32;;;15.90;70.10;17.70;101295.00;;;;5000976;28;20287;-71
2024/03/13 10:06:59;;;;;;;5.90;4.20;;;16.00;70.10;17.70;101297.00;;;;4995442;28;20196;-71
2024/03/13 10:09:31;;;;;;;8.52;4.35;;;16.00;70.00;17.70;101296.00;;;;4988057;28;20188;-71
2024/03/13 10:11:58;;;;;;;6.40;3.75;;;16.00;69.90;17.70;101297.00;;;;5012729;28;20224;-71
2024/03/13 10:14:25;;;;;;;4.93;3.38;;;16.10;69.80;17.70;101285.00;;;;5012177;28;20206;-72
2024/03/13 10:16:53;;;;;;;5.35;3.00;;;16.10;69.80;17.80;101293.00;;;;4999122;28;20270;-71
2024/03/13 10:19:20;;;;;;;3.67;2.60;;;16.10;70.00;17.80;101302.00;;;;4995991;28;20204;-71
2024/03/13 10:21:49;;;;;;;7.65;2.80;;;16.20;70.00;17.80;101298.00;;;;4988190;28;20282;-72
2024/03/13 10:24:18;;;;;;;10.18;3.75;;;16.20;70.00;17.90;101298.00;;;;5016347;28;20305;-71
2024/03/13 10:26:46;;;;;;;6.82;2.97;;;16.20;69.90;17.90;101300.00;;;;5006901;28;20211;-72
2024/03/13 10:29:13;;;;;;;7.80;3.10;;;16.20;69.80;18.00;101297.00;;;;5001003;28;20196;-71
2024/03/13 10:31:41;;;;;;;7.80;3.05;;;16.30;69.80;18.00;101297.00;;;;5000601;28;20204;-71
2024/03/13 10:34:09;;;;;;;4.57;2.50;;;16.30;69.70;18.00;101294.00;;;;5000051;28;20705;-72
2024/03/13 10:36:37;;;;;;;7.85;2.38;;;16.30;69.60;18.00;101291.00;;;;4984815;28;20283;-71
2024/03/13 10:39:05;;;;;;;4.65;2.30;;;16.40;69.50;18.10;101296.00;;;;5000524;28;20210;-71
2024/03/13 10:41:32;;;;;;;5.82;2.45;;;16.40;69.40;18.10;101296.00;;;;5001528;28;20204;-71
2024/03/13 10:44:00;;;;;;;4.80;2.38;;;16.40;69.30;18.10;101302.00;;;;5000572;28;20195;-71
2024/03/13 10:46:27;;;;;;;5.22;2.38;;;16.40;69.20;18.10;101291.00;;;;5000868;28;20258;-71
2024/03/13 10:48:55;;;;;;;4.97;2.00;;;16.40;69.00;18.10;101295.00;;;;5002775;28;20192;-71
2024/03/13 10:51:23;;;;;;;3.75;2.22;;;16.40;68.90;18.10;101299.00;;;;5000102;28;20204;-71
2024/03/13 10:53:51;;;;;;;3.97;2.10;;;16.40;68.90;18.10;101297.00;;;;5001169;28;20227;-71
2024/03/13 10:56:18;;;;;;;7.95;1.98;;;16.40;68.80;18.10;101304.00;;;;5002281;28;20233;-71
2024/03/13 10:58:46;;;;;;;6.75;2.72;;;16.50;68.70;18.10;101305.00;;;;4990524;28;20209;-72
2024/03/13 11:01:16;;;;;;;3.05;2.17;;;16.40;68.60;18.00;101302.00;;;;4998919;28;20250;-72
2024/03/13 11:03:45;;;;;;;4.22;1.92;;;16.40;68.70;18.00;101302.00;;;;5001890;28;20231;-71
2024/03/13 11:06:14;;;;;;;4.70;2.05;;;16.40;68.60;18.00;101301.00;;;;5000697;28;20200;-71